createdAt,value
2023-05-03T00:01:10.196Z,7.63
2023-05-03T00:05:12.011Z,7.53
2023-05-03T00:09:13.695Z,7.63
2023-05-03T00:13:14.954Z,7.57
2023-05-03T00:17:16.298Z,7.40
2023-05-03T00:21:17.609Z,8.60
2023-05-03T00:25:18.748Z,7.43
2023-05-03T00:29:21.596Z,7.77
2023-05-03T00:33:22.777Z,8.43
2023-05-03T00:37:24.438Z,8.03
2023-05-03T00:41:26.083Z,8.10
2023-05-03T00:45:30.342Z,8.00
2023-05-03T00:49:31.515Z,7.50
2023-05-03T00:53:32.975Z,8.10
2023-05-03T00:57:34.110Z,7.10
2023-05-03T01:01:35.413Z,7.73
2023-05-03T01:05:40.337Z,7.17
2023-05-03T01:09:51.372Z,8.60
2023-05-03T01:13:58.648Z,8.40
2023-05-03T01:18:12.787Z,7.87
2023-05-03T01:22:33.338Z,7.30
2023-05-03T01:26:34.508Z,8.10
2023-05-03T01:30:36.574Z,7.97
2023-05-03T01:34:41.573Z,7.30
2023-05-03T01:38:43.119Z,7.60
2023-05-03T01:42:44.391Z,8.30
2023-05-03T01:46:46.345Z,7.93
2023-05-03T01:50:47.488Z,8.20
2023-05-03T01:54:48.646Z,7.60
2023-05-03T01:58:49.789Z,8.23
2023-05-03T02:02:51.076Z,7.53
2023-05-03T02:06:52.216Z,8.73
2023-05-03T02:10:53.356Z,7.60
2023-05-03T02:14:54.517Z,7.57
2023-05-03T02:18:57.559Z,8.13
2023-05-03T02:22:58.828Z,8.43
2023-05-03T02:26:59.995Z,7.90
2023-05-03T02:31:01.328Z,7.57
2023-05-03T02:35:02.520Z,8.50
2023-05-03T02:39:03.574Z,7.60
2023-05-03T02:43:04.732Z,7.80
2023-05-03T02:47:05.878Z,7.43
2023-05-03T02:51:07.039Z,7.90
2023-05-03T02:55:08.849Z,7.60
2023-05-03T02:59:11.003Z,7.73
2023-05-03T03:03:12.348Z,7.33
2023-05-03T03:07:13.498Z,7.50
2023-05-03T03:11:14.858Z,7.80
2023-05-03T03:15:16.286Z,8.83
2023-05-03T03:19:17.413Z,7.73
2023-05-03T03:23:18.580Z,7.73
2023-05-03T03:27:20.824Z,9.10
2023-05-03T03:31:22.487Z,9.20
2023-05-03T03:35:24.107Z,8.63
2023-05-03T03:39:25.276Z,8.17
2023-05-03T03:43:26.571Z,9.90
2023-05-03T03:47:27.821Z,8.30
2023-05-03T03:51:28.973Z,8.57
2023-05-03T03:55:30.517Z,9.63
2023-05-03T03:59:31.602Z,8.80
2023-05-03T04:03:32.790Z,8.70
2023-05-03T04:07:33.994Z,8.90
2023-05-03T04:11:35.405Z,7.70
2023-05-03T04:15:36.551Z,8.50
2023-05-03T04:19:37.920Z,8.80
2023-05-03T04:23:39.669Z,9.50
2023-05-03T04:27:41.036Z,9.30
2023-05-03T04:31:42.950Z,9.37
2023-05-03T04:35:44.039Z,9.27
2023-05-03T04:39:45.597Z,8.90
2023-05-03T04:43:46.752Z,8.30
2023-05-03T04:47:48.039Z,9.60
2023-05-03T04:51:49.179Z,9.07
2023-05-03T04:55:50.616Z,7.90
2023-05-03T04:59:53.422Z,9.50
2023-05-03T05:03:54.638Z,8.80
2023-05-03T05:07:55.756Z,8.37
2023-05-03T05:11:57.456Z,7.80
2023-05-03T05:15:58.592Z,8.13
2023-05-03T05:19:59.916Z,7.80
2023-05-03T05:24:01.213Z,8.40
2023-05-03T05:28:02.485Z,8.23
2023-05-03T05:32:04.696Z,7.80
2023-05-03T05:36:06.179Z,7.60
2023-05-03T05:40:08.386Z,7.30
2023-05-03T05:44:09.547Z,7.83
2023-05-03T05:48:10.757Z,8.80
2023-05-03T05:52:11.880Z,8.90
2023-05-03T05:56:13.719Z,7.40
2023-05-03T06:00:16.479Z,8.10
2023-05-03T06:04:17.662Z,7.53
2023-05-03T06:08:18.800Z,8.40
2023-05-03T06:12:19.966Z,7.10
2023-05-03T06:16:21.535Z,8.73
2023-05-03T06:20:23.695Z,6.90
2023-05-03T06:24:26.754Z,8.23
2023-05-03T06:28:27.911Z,6.90
2023-05-03T06:32:29.057Z,7.57
2023-05-03T06:36:30.319Z,7.13
2023-05-03T06:40:31.494Z,8.23
2023-05-03T06:44:33.973Z,7.90
2023-05-03T06:48:35.124Z,7.77
2023-05-03T06:52:36.221Z,7.77
2023-05-03T06:56:37.307Z,7.33
2023-05-03T07:00:38.646Z,7.70
2023-05-03T07:04:39.940Z,6.77
2023-05-03T07:08:41.086Z,7.40
2023-05-03T07:12:42.243Z,6.83
2023-05-03T07:16:43.463Z,6.07
2023-05-03T07:20:45.661Z,6.33
2023-05-03T07:24:46.861Z,5.80
2023-05-03T07:28:47.980Z,5.67
2023-05-03T07:32:50.076Z,5.83
2023-05-03T07:36:54.065Z,4.30
2023-05-03T07:40:55.223Z,6.70
2023-05-03T07:44:56.399Z,5.10
2023-05-03T07:48:58.120Z,6.50
2023-05-03T07:52:59.263Z,6.03
2023-05-03T07:57:00.539Z,7.07
2023-05-03T08:01:01.771Z,5.90
2023-05-03T08:05:04.542Z,6.60
2023-05-03T08:09:05.795Z,7.10
2023-05-03T08:13:07.456Z,5.97
2023-05-03T08:17:08.938Z,6.87
2023-05-03T08:21:11.681Z,6.83
2023-05-03T08:25:12.960Z,6.87
2023-05-03T08:29:14.496Z,7.50
2023-05-03T08:33:15.689Z,6.80
2023-05-03T08:37:16.985Z,7.53
2023-05-03T08:41:25.390Z,6.30
2023-05-03T08:45:26.524Z,7.43
2023-05-03T08:49:28.770Z,7.20
2023-05-03T08:53:30.240Z,8.07
2023-05-03T08:57:33.610Z,7.40
2023-05-03T09:01:36.169Z,7.20
2023-05-03T09:05:39.275Z,7.33
2023-05-03T09:09:40.470Z,6.93
2023-05-03T09:13:41.554Z,6.73
2023-05-03T09:17:42.811Z,6.70
2023-05-03T09:21:46.321Z,6.83
2023-05-03T09:25:48.978Z,7.30
2023-05-03T09:29:50.753Z,5.50
2023-05-03T09:33:52.823Z,6.70
2023-05-03T09:37:53.979Z,6.90
2023-05-03T09:41:55.898Z,7.40
2023-05-03T09:46:12.533Z,6.80
2023-05-03T09:50:13.877Z,7.00
2023-05-03T09:54:15.971Z,6.67
2023-05-03T09:58:18.153Z,7.30
2023-05-03T10:02:21.074Z,7.00
2023-05-03T10:06:31.207Z,6.40
2023-05-03T10:10:35.133Z,6.63
2023-05-03T10:14:36.299Z,7.07
2023-05-03T10:18:41.280Z,6.87
2023-05-03T10:23:05.934Z,5.70
2023-05-03T10:27:07.806Z,6.40
2023-05-03T10:31:46.519Z,7.17
2023-05-03T10:35:52.560Z,7.10
2023-05-03T10:39:54.672Z,6.47
2023-05-03T10:43:57.040Z,6.40
2023-05-03T10:48:15.915Z,5.67
2023-05-03T10:52:39.184Z,5.30
2023-05-03T10:56:48.988Z,6.53
2023-05-03T11:00:54.242Z,5.97
2023-05-03T11:04:59.296Z,5.20
2023-05-03T11:09:01.252Z,6.33
2023-05-03T11:13:04.337Z,6.63
2023-05-03T11:17:05.751Z,5.80
2023-05-03T11:21:06.923Z,6.53
2023-05-03T11:25:09.923Z,6.50
2023-05-03T11:29:12.997Z,5.13
2023-05-03T11:33:14.268Z,10.50
2023-05-03T11:37:15.497Z,5.90
2023-05-03T11:41:17.379Z,6.80
2023-05-03T11:45:24.300Z,5.40
2023-05-03T11:49:26.931Z,5.50
2023-05-03T11:53:28.296Z,5.23
2023-05-03T11:57:31.275Z,5.13
2023-05-03T12:01:32.673Z,5.10
2023-05-03T12:05:34.191Z,5.70
2023-05-03T12:09:35.914Z,5.37
2023-05-03T12:13:39.729Z,4.83
2023-05-03T12:17:44.139Z,5.20
2023-05-03T12:22:01.184Z,5.43
2023-05-03T12:25:52.862Z,6.83
2023-05-03T12:29:55.649Z,4.70
2023-05-03T12:34:19.742Z,4.57
2023-05-03T12:38:03.036Z,4.83
2023-05-03T12:42:07.779Z,4.90
2023-05-03T12:46:32.371Z,4.80
2023-05-03T12:50:12.591Z,4.40
2023-05-03T12:54:18.370Z,4.63
2023-05-03T13:06:24.628Z,4.97
2023-05-03T13:10:26.455Z,4.70
2023-05-03T13:14:27.854Z,4.27
2023-05-03T13:18:29.008Z,4.70
2023-05-03T13:22:30.849Z,4.60
2023-05-03T13:26:32.571Z,3.80
2023-05-03T13:30:33.837Z,4.93
2023-05-03T13:34:35.521Z,4.53
2023-05-03T13:38:36.851Z,3.70
2023-05-03T13:42:38.022Z,4.53
2023-05-03T13:46:40.824Z,3.83
2023-05-03T13:50:42.448Z,3.77
2023-05-03T13:54:43.643Z,4.40
2023-05-03T13:58:44.775Z,4.57
2023-05-03T14:02:51.977Z,4.10
2023-05-03T14:06:53.366Z,4.90
2023-05-03T14:10:54.573Z,4.53
2023-05-03T14:14:55.745Z,4.60
2023-05-03T14:18:57.406Z,4.40
2023-05-03T14:22:58.641Z,3.83
2023-05-03T14:27:01.113Z,4.03
2023-05-03T14:31:06.904Z,4.40
2023-05-03T14:35:08.709Z,3.80
2023-05-03T14:39:12.558Z,4.00
2023-05-03T14:43:14.865Z,3.70
2023-05-03T14:47:16.210Z,3.53
2023-05-03T14:51:18.257Z,3.80
2023-05-03T14:55:19.454Z,3.97
2023-05-03T14:59:20.720Z,4.30
2023-05-03T15:03:21.913Z,3.10
2023-05-03T15:07:23.333Z,3.37
2023-05-03T15:11:26.988Z,3.90
2023-05-03T15:15:28.241Z,2.83
2023-05-03T15:19:29.563Z,4.30
2023-05-03T15:23:30.794Z,4.27
2023-05-03T15:27:32.051Z,3.73
2023-05-03T15:31:34.787Z,3.83
2023-05-03T15:35:38.638Z,3.57
2023-05-03T15:39:39.788Z,3.27
2023-05-03T15:43:40.967Z,3.40
2023-05-03T15:47:42.475Z,4.53
2023-05-03T15:51:43.581Z,4.53
2023-05-03T15:55:45.150Z,4.70
2023-05-03T15:59:49.653Z,4.13
2023-05-03T16:03:50.782Z,3.33
2023-05-03T16:07:56.165Z,4.20
2023-05-03T16:11:59.068Z,3.30
2023-05-03T16:16:02.323Z,3.07
2023-05-03T16:20:09.421Z,3.40
2023-05-03T16:24:11.888Z,3.63
2023-05-03T16:28:14.676Z,5.57
2023-05-03T16:32:16.015Z,3.20
2023-05-03T16:36:19.027Z,5.37
2023-05-03T16:40:20.566Z,4.03
2023-05-03T16:44:23.496Z,3.27
2023-05-03T16:48:25.612Z,3.20
2023-05-03T16:52:27.899Z,3.70
2023-05-03T16:56:30.340Z,3.23
2023-05-03T17:00:32.852Z,4.10
2023-05-03T17:04:34.716Z,3.37
2023-05-03T17:08:36.572Z,3.33
2023-05-03T17:12:38.180Z,3.50
2023-05-03T17:16:40.412Z,3.90
2023-05-03T17:20:42.197Z,9.33
2023-05-03T17:24:43.590Z,5.70
2023-05-03T17:28:44.711Z,3.17
2023-05-03T17:32:46.105Z,3.80
2023-05-03T17:36:47.249Z,3.20
2023-05-03T17:40:48.506Z,3.10
2023-05-03T17:44:54.512Z,3.23
2023-05-03T17:48:57.118Z,3.27
2023-05-03T17:52:58.733Z,3.77
2023-05-03T17:57:01.947Z,3.47
2023-05-03T18:01:05.153Z,3.20
2023-05-03T18:05:07.248Z,3.20
2023-05-03T18:09:08.408Z,3.63
2023-05-03T18:13:11.984Z,2.70
2023-05-03T18:17:13.126Z,5.27
2023-05-03T18:21:14.280Z,3.40
2023-05-03T18:25:16.252Z,3.20
2023-05-03T18:29:17.443Z,3.97
2023-05-03T18:33:19.540Z,3.73
2023-05-03T18:37:23.877Z,3.47
2023-05-03T18:41:24.401Z,3.27
2023-05-03T18:45:26.210Z,3.00
2023-05-03T18:49:27.469Z,2.57
2023-05-03T18:53:30.426Z,2.47
2023-05-03T18:57:31.743Z,2.27
2023-05-03T19:01:33.213Z,2.50
2023-05-03T19:05:34.470Z,2.53
2023-05-03T19:09:37.788Z,2.80
2023-05-03T19:13:41.738Z,2.90
2023-05-03T19:17:43.977Z,2.53
2023-05-03T19:21:45.169Z,2.90
2023-05-03T19:25:46.477Z,3.43
2023-05-03T19:29:47.756Z,3.20
2023-05-03T19:33:49.025Z,3.40
2023-05-03T19:37:50.370Z,2.80
2023-05-03T19:41:52.483Z,3.40
2023-05-03T19:45:53.806Z,3.57
2023-05-03T19:49:55.460Z,3.27
2023-05-03T19:53:57.237Z,3.20
2023-05-03T19:57:58.679Z,4.00
2023-05-03T20:02:00.054Z,5.37
2023-05-03T20:06:01.703Z,3.70
2023-05-03T20:10:04.797Z,3.43
2023-05-03T20:14:07.269Z,3.50
2023-05-03T20:18:08.668Z,4.40
2023-05-03T20:22:10.597Z,4.20
2023-05-03T20:26:11.818Z,3.53
2023-05-03T20:30:13.314Z,3.47
2023-05-03T20:34:14.767Z,4.20
2023-05-03T20:38:16.158Z,3.03
2023-05-03T20:42:17.370Z,3.23
2023-05-03T20:46:18.836Z,3.60
2023-05-03T20:50:20.356Z,3.97
2023-05-03T20:54:22.570Z,4.20
2023-05-03T20:58:23.772Z,4.13
2023-05-03T21:02:25.000Z,4.10
2023-05-03T21:06:26.504Z,3.77
2023-05-03T21:10:27.658Z,4.73
2023-05-03T21:14:28.877Z,4.17
2023-05-03T21:18:30.038Z,3.93
2023-05-03T21:22:31.440Z,5.00
2023-05-03T21:26:32.611Z,4.57
2023-05-03T21:30:33.988Z,4.27
2023-05-03T21:34:35.181Z,4.67
2023-05-03T21:38:36.300Z,4.10
2023-05-03T21:42:38.068Z,4.50
2023-05-03T21:46:42.341Z,4.00
2023-05-03T21:50:45.176Z,3.50
2023-05-03T21:54:46.430Z,3.93
2023-05-03T21:58:48.200Z,4.20
2023-05-03T22:02:49.375Z,4.97
2023-05-03T22:06:50.498Z,3.93
2023-05-03T22:10:51.677Z,4.30
2023-05-03T22:14:53.631Z,3.50
2023-05-03T22:18:55.032Z,4.27
2023-05-03T22:22:57.104Z,3.93
2023-05-03T22:26:58.548Z,4.40
2023-05-03T22:30:59.712Z,4.30
2023-05-03T22:35:00.877Z,4.13
2023-05-03T22:39:04.066Z,4.00
2023-05-03T22:43:05.322Z,4.17
2023-05-03T22:47:07.477Z,4.50
2023-05-03T22:51:08.767Z,4.93
2023-05-03T22:55:10.099Z,4.87
2023-05-03T22:59:11.551Z,4.07
2023-05-03T23:03:12.786Z,4.20
2023-05-03T23:07:14.678Z,4.13
2023-05-03T23:11:15.847Z,3.80
2023-05-03T23:15:17.018Z,3.73
2023-05-03T23:19:20.647Z,4.40
2023-05-03T23:23:22.064Z,4.50
2023-05-03T23:27:23.196Z,4.20
2023-05-03T23:31:24.945Z,5.37
2023-05-03T23:35:26.515Z,4.87
2023-05-03T23:39:27.678Z,4.90
2023-05-03T23:43:28.817Z,4.90
2023-05-03T23:47:30.194Z,4.17
2023-05-03T23:51:31.328Z,5.40
2023-05-03T23:55:32.418Z,4.30
2023-05-03T23:59:33.541Z,4.83
